Time;durP1;ratioP1;P1;durP2;ratioP2;P2;SDS_P1;SDS_P2;PMS_P1;PMS_P2;Temp;Humidity;BMP_temperature;BMP_pressure;BME280_temperature;BME280_humidity;BME280_pressure;Samples;Min_cycle;Max_cycle;Signal;HPM_P1;HPM_P2
2023/10/11 00:01:58;;;;;;;;;;;16.30;78.90;;;;;;5155607;22;20322;-87
2023/10/11 00:04:24;;;;;;;;;;;16.30;78.90;;;;;;5182347;22;19942;-86
2023/10/11 00:06:49;;;;;;;;;;;16.40;78.80;;;;;;5186559;22;19939;-87
2023/10/11 00:08:50;;;;;;;;;;;16.30;78.70;;;;;;5183473;22;19951;-86
2023/10/11 00:11:18;;;;;;;;;;;16.40;78.60;;;;;;5184389;22;20232;-88
2023/10/11 00:13:23;;;;;;;;;;;16.40;78.70;;;;;;5132864;23;19934;-87
2023/10/11 00:15:29;;;;;;;;;;;16.30;78.70;;;;;;5156139;22;20526;-88
2023/10/11 00:17:49;;;;;;;;;;;16.30;78.70;;;;;;5181609;22;19907;-87
2023/10/11 00:20:19;;;;;;;;;;;16.30;78.60;;;;;;5174870;22;20395;-87
2023/10/11 00:22:40;;;;;;;;;;;16.30;78.70;;;;;;5182200;22;20004;-87
2023/10/11 00:25:01;;;;;;;;;;;16.30;78.70;;;;;;5160708;22;20287;-88
2023/10/11 00:27:21;;;;;;;;;;;16.30;78.80;;;;;;5181977;22;20262;-88
2023/10/11 00:29:42;;;;;;;;;;;16.30;78.70;;;;;;5183095;22;20263;-86
2023/10/11 00:32:04;;;;;;;;;;;16.30;78.70;;;;;;5185463;22;20374;-88
2023/10/11 00:34:24;;;;;;;;;;;16.20;78.60;;;;;;5185633;22;20027;-88
2023/10/11 00:36:49;;;;;;;;;;;16.30;78.70;;;;;;5184520;22;19972;-86
2023/10/11 00:38:50;;;;;;;;;;;16.40;78.60;;;;;;5158652;23;19918;-88
2023/10/11 00:41:06;;;;;;;;;;;16.30;78.50;;;;;;5158386;23;20006;-87
2023/10/11 00:43:34;;;;;;;;;;;16.30;78.50;;;;;;5160222;22;19903;-87
2023/10/11 00:45:54;;;;;;;;;;;16.30;78.60;;;;;;5186480;22;20322;-88
2023/10/11 00:48:19;;;;;;;;;;;16.30;78.50;;;;;;5186711;22;19962;-88
2023/10/11 00:50:39;;;;;;;;;;;16.30;78.60;;;;;;5188581;22;19907;-88
2023/10/11 00:53:00;;;;;;;;;;;16.30;78.40;;;;;;5206313;22;19899;-87
2023/10/11 00:55:24;;;;;;;;;;;16.30;78.40;;;;;;5215650;22;19903;-88
2023/10/11 00:57:48;;;;;;;;;;;16.30;78.50;;;;;;5213600;22;20110;-87
2023/10/11 01:00:13;;;;;;;;;;;16.30;78.50;;;;;;5172816;22;20235;-87
2023/10/11 01:02:33;;;;;;;;;;;16.30;78.60;;;;;;5187821;22;19952;-88
2023/10/11 01:04:57;;;;;;;;;;;16.20;78.60;;;;;;5185884;22;20204;-89
2023/10/11 01:06:58;;;;;;;;;;;16.30;78.70;;;;;;5188632;22;19903;-89
2023/10/11 01:08:59;;;;;;;;;;;16.30;78.60;;;;;;5210445;22;19903;-88
2023/10/11 01:10:59;;;;;;;;;;;16.30;78.60;;;;;;5212584;22;19895;-87
2023/10/11 01:13:00;;;;;;;;;;;16.30;78.70;;;;;;5186725;22;19904;-88
2023/10/11 01:15:01;;;;;;;;;;;16.30;78.70;;;;;;5186298;22;19911;-89
2023/10/11 01:17:02;;;;;;;;;;;16.30;78.70;;;;;;5184843;22;19978;-88
2023/10/11 01:19:07;;;;;;;;;;;16.30;78.70;;;;;;5185808;22;19957;-88
2023/10/11 01:21:08;;;;;;;;;;;16.40;78.80;;;;;;5185158;22;19922;-87
2023/10/11 01:23:09;;;;;;;;;;;16.30;78.70;;;;;;5157144;22;19915;-87
2023/10/11 01:25:18;;;;;;;;;;;16.30;78.70;;;;;;5186400;22;19907;-88
2023/10/11 01:27:18;;;;;;;;;;;16.30;78.70;;;;;;5159720;23;19904;-87
2023/10/11 01:29:19;;;;;;;;;;;16.40;78.80;;;;;;5158806;23;19915;-87
2023/10/11 01:31:19;;;;;;;;;;;16.40;78.80;;;;;;5186596;22;19946;-88
2023/10/11 01:33:20;;;;;;;;;;;16.40;78.80;;;;;;5184951;22;19907;-87
2023/10/11 01:35:21;;;;;;;;;;;16.40;78.90;;;;;;5182904;22;19987;-87
2023/10/11 01:37:22;;;;;;;;;;;16.40;78.90;;;;;;5184109;22;19907;-87
2023/10/11 01:39:23;;;;;;;;;;;16.30;78.60;;;;;;5185051;22;20480;-87
2023/10/11 01:41:26;;;;;;;;;;;16.30;78.70;;;;;;5185192;22;19914;-88
2023/10/11 01:43:28;;;;;;;;;;;16.40;78.80;;;;;;5185357;22;19903;-86
2023/10/11 01:45:28;;;;;;;;;;;16.30;78.70;;;;;;5184127;22;19907;-86
2023/10/11 01:47:29;;;;;;;;;;;16.40;78.80;;;;;;5183996;22;19907;-89
2023/10/11 01:49:37;;;;;;;;;;;16.40;78.80;;;;;;5183320;22;19914;-86
2023/10/11 01:51:40;;;;;;;;;;;16.40;78.80;;;;;;5180719;22;19911;-86
2023/10/11 01:53:41;;;;;;;;;;;16.30;78.80;;;;;;5180952;22;19907;-87
2023/10/11 01:55:42;;;;;;;;;;;16.30;78.80;;;;;;5183366;22;19911;-86
2023/10/11 01:57:48;;;;;;;;;;;16.30;78.90;;;;;;5184919;22;19982;-89
2023/10/11 01:59:49;;;;;;;;;;;16.30;78.90;;;;;;5155713;23;19915;-87
2023/10/11 02:01:58;;;;;;;;;;;16.30;78.90;;;;;;5182948;22;19969;-88
2023/10/11 02:03:59;;;;;;;;;;;16.30;79.00;;;;;;5183069;22;19910;-87
2023/10/11 02:06:04;;;;;;;;;;;16.40;79.00;;;;;;5183411;22;19989;-87
2023/10/11 02:08:06;;;;;;;;;;;16.30;79.00;;;;;;5185803;22;19915;-87
2023/10/11 02:10:08;;;;;;;;;;;16.30;78.90;;;;;;5184037;22;19912;-88
2023/10/11 02:12:10;;;;;;;;;;;16.30;79.00;;;;;;5184714;22;19904;-87
2023/10/11 02:14:13;;;;;;;;;;;16.40;79.00;;;;;;5184275;22;19907;-87
2023/10/11 02:16:15;;;;;;;;;;;16.30;79.00;;;;;;5183004;22;20438;-88
2023/10/11 02:18:16;;;;;;;;;;;16.30;79.10;;;;;;5159085;23;19935;-87
2023/10/11 02:20:21;;;;;;;;;;;16.40;79.20;;;;;;5183997;22;19907;-86
2023/10/11 02:22:22;;;;;;;;;;;16.30;79.20;;;;;;5155138;22;20007;-89
2023/10/11 02:24:25;;;;;;;;;;;16.30;79.40;;;;;;5157149;23;19904;-87
2023/10/11 02:26:31;;;;;;;;;;;16.40;79.40;;;;;;5188718;22;19903;-86
2023/10/11 02:28:32;;;;;;;;;;;16.30;79.40;;;;;;5187152;22;19903;-86
2023/10/11 02:30:38;;;;;;;;;;;16.30;79.50;;;;;;5187530;22;19909;-87
2023/10/11 02:32:41;;;;;;;;;;;16.40;79.60;;;;;;5186519;22;19911;-86
2023/10/11 02:34:46;;;;;;;;;;;16.30;79.50;;;;;;5184782;22;19974;-86
2023/10/11 02:37:11;;;;;;;;;;;16.30;79.70;;;;;;5183833;22;20263;-88
2023/10/11 02:39:18;;;;;;;;;;;16.30;79.90;;;;;;5187830;22;20323;-87
2023/10/11 02:41:24;;;;;;;;;;;16.40;80.80;;;;;;5186311;22;20355;-88
2023/10/11 02:43:26;;;;;;;;;;;16.30;80.20;;;;;;5187830;22;20351;-90
2023/10/11 02:45:26;;;;;;;;;;;16.30;80.20;;;;;;5186184;22;19918;-89
2023/10/11 02:47:27;;;;;;;;;;;16.30;80.30;;;;;;5187381;22;19907;-88
2023/10/11 02:49:31;;;;;;;;;;;16.40;80.30;;;;;;5186331;22;19960;-89
2023/10/11 02:51:35;;;;;;;;;;;16.30;80.50;;;;;;5185164;22;19911;-89
2023/10/11 02:53:36;;;;;;;;;;;16.40;80.60;;;;;;5160920;22;19946;-88
2023/10/11 02:55:40;;;;;;;;;;;16.40;80.60;;;;;;5158859;23;19920;-88
2023/10/11 02:57:41;;;;;;;;;;;16.40;80.50;;;;;;5158698;23;19912;-88
2023/10/11 02:59:44;;;;;;;;;;;16.40;80.70;;;;;;5187585;22;19911;-88
2023/10/11 03:01:59;;;;;;;;;;;16.40;80.70;;;;;;5184233;22;20393;-86
2023/10/11 03:04:01;;;;;;;;;;;16.40;81.00;;;;;;5158855;22;19965;-89
2023/10/11 03:06:02;;;;;;;;;;;16.40;81.00;;;;;;5186619;22;19911;-87
2023/10/11 03:08:16;;;;;;;;;;;16.40;80.90;;;;;;5187268;22;19918;-88
2023/10/11 03:10:18;;;;;;;;;;;16.40;80.90;;;;;;5185121;22;19911;-87
2023/10/11 03:12:19;;;;;;;;;;;16.40;81.00;;;;;;5184294;22;20001;-85
2023/10/11 03:14:20;;;;;;;;;;;16.40;81.10;;;;;;5182941;22;20332;-85
2023/10/11 03:16:23;;;;;;;;;;;16.50;81.20;;;;;;5156516;23;19947;-86
2023/10/11 03:18:46;;;;;;;;;;;16.50;81.50;;;;;;5155681;23;19912;-85
2023/10/11 03:20:50;;;;;;;;;;;16.50;81.70;;;;;;5158146;22;19982;-86
2023/10/11 03:22:51;;;;;;;;;;;16.50;81.60;;;;;;5183504;22;19911;-87
2023/10/11 03:25:12;;;;;;;;;;;16.40;81.60;;;;;;5158850;22;19946;-88
2023/10/11 03:27:13;;;;;;;;;;;16.50;81.70;;;;;;5159675;23;19904;-87
2023/10/11 03:29:17;;;;;;;;;;;16.50;81.90;;;;;;5158294;23;19919;-88
2023/10/11 03:31:18;;;;;;;;;;;16.50;81.80;;;;;;5158570;23;19903;-87
2023/10/11 03:33:19;;;;;;;;;;;16.50;81.80;;;;;;5168805;22;19975;-87
2023/10/11 03:35:19;;;;;;;;;;;16.50;81.70;;;;;;5210045;22;19938;-87
2023/10/11 03:37:20;;;;;;;;;;;16.50;81.80;;;;;;5193121;22;19911;-85
2023/10/11 03:41:45;;;;;;;;;;;16.60;81.90;;;;;;5183080;22;19903;-85
2023/10/11 03:43:45;;;;;;;;;;;16.50;81.90;;;;;;5157012;22;19914;-87
2023/10/11 03:45:57;;;;;;;;;;;16.60;81.80;;;;;;5186442;22;19912;-87
2023/10/11 03:47:58;;;;;;;;;;;16.60;81.70;;;;;;5187039;22;19926;-86
2023/10/11 03:49:59;;;;;;;;;;;16.60;81.70;;;;;;5186256;22;19907;-86
2023/10/11 03:52:00;;;;;;;;;;;16.60;81.90;;;;;;5185117;22;19935;-86
2023/10/11 03:54:04;;;;;;;;;;;16.60;82.10;;;;;;5156814;23;19915;-86
2023/10/11 03:56:05;;;;;;;;;;;16.70;82.30;;;;;;5183761;22;20344;-86
2023/10/11 03:58:06;;;;;;;;;;;16.70;82.00;;;;;;5184178;22;19917;-86
2023/10/11 04:02:23;;;;;;;;;;;16.60;82.00;;;;;;5184726;22;20453;-85
2023/10/11 04:04:24;;;;;;;;;;;16.70;82.20;;;;;;5186054;22;19908;-85
2023/10/11 04:06:24;;;;;;;;;;;16.60;82.00;;;;;;5106796;22;1807017;-85
2023/10/11 04:08:26;;;;;;;;;;;16.60;82.20;;;;;;5183094;22;19960;-88
2023/10/11 04:10:38;;;;;;;;;;;16.60;82.20;;;;;;5186258;22;20163;-86
2023/10/11 04:12:42;;;;;;;;;;;16.60;82.10;;;;;;5184738;22;19907;-86
2023/10/11 04:14:45;;;;;;;;;;;16.60;82.30;;;;;;5185169;22;20335;-86
2023/10/11 04:16:46;;;;;;;;;;;16.60;82.40;;;;;;5184795;22;19911;-85
2023/10/11 04:18:53;;;;;;;;;;;16.70;82.70;;;;;;5160633;22;20335;-85
2023/10/11 04:21:12;;;;;;;;;;;16.60;82.50;;;;;;5187455;22;20569;-87
2023/10/11 04:23:14;;;;;;;;;;;16.70;82.60;;;;;;5187214;22;19918;-86
2023/10/11 04:25:17;;;;;;;;;;;16.60;82.50;;;;;;5185208;22;19937;-86
2023/10/11 04:29:31;;;;;;;;;;;16.70;82.70;;;;;;5191105;22;19922;-85
2023/10/11 04:33:55;;;;;;;;;;;16.70;82.80;;;;;;5189110;22;19934;-86
2023/10/11 04:35:56;;;;;;;;;;;16.70;82.80;;;;;;5187979;22;20315;-86
2023/10/11 04:38:01;;;;;;;;;;;16.70;82.70;;;;;;5187329;22;20266;-84
2023/10/11 04:40:23;;;;;;;;;;;16.70;82.60;;;;;;5187342;22;19909;-84
2023/10/11 04:42:28;;;;;;;;;;;16.70;82.60;;;;;;5187949;22;19927;-87
2023/10/11 04:44:35;;;;;;;;;;;16.70;82.70;;;;;;5161256;23;19904;-85
2023/10/11 04:46:36;;;;;;;;;;;16.80;82.70;;;;;;5187670;22;19947;-84
2023/10/11 04:48:36;;;;;;;;;;;16.80;82.70;;;;;;5188575;22;20333;-84
2023/10/11 04:50:43;;;;;;;;;;;16.80;82.60;;;;;;5189000;22;19990;-86
2023/10/11 04:52:48;;;;;;;;;;;16.80;82.60;;;;;;5189351;22;20358;-87
2023/10/11 04:54:55;;;;;;;;;;;16.80;82.60;;;;;;5188398;22;20622;-86
2023/10/11 04:56:59;;;;;;;;;;;16.80;82.60;;;;;;5188921;22;19950;-86
2023/10/11 04:59:06;;;;;;;;;;;16.90;82.60;;;;;;5188914;22;20324;-85
2023/10/11 05:01:11;;;;;;;;;;;16.80;82.50;;;;;;5188805;22;20339;-85
2023/10/11 05:03:12;;;;;;;;;;;16.90;82.40;;;;;;5183511;22;19903;-85
2023/10/11 05:05:17;;;;;;;;;;;16.80;82.50;;;;;;5187358;22;19911;-86
2023/10/11 05:07:22;;;;;;;;;;;16.90;82.60;;;;;;5186952;22;20345;-86
2023/10/11 05:09:41;;;;;;;;;;;16.90;82.60;;;;;;5187705;22;19911;-86
2023/10/11 05:11:49;;;;;;;;;;;16.80;82.60;;;;;;5188337;22;20347;-85
2023/10/11 05:14:05;;;;;;;;;;;16.80;82.70;;;;;;5161551;22;20367;-84
2023/10/11 05:16:07;;;;;;;;;;;16.80;82.60;;;;;;5188864;22;19915;-86
2023/10/11 05:18:08;;;;;;;;;;;16.80;82.50;;;;;;5190793;22;20469;-86
2023/10/11 05:22:48;;;;;;;;;;;16.90;83.30;;;;;;5187056;22;19911;-85
2023/10/11 05:30:16;;;;;;;;;;;16.90;82.50;;;;;;5188280;22;19988;-87
2023/10/11 05:32:49;;;;;;;;;;;16.90;82.50;;;;;;5192447;22;19930;-86
2023/10/11 05:51:00;;;;;;;;;;;16.90;82.30;;;;;;5188472;22;19922;-85
2023/10/11 05:53:21;;;;;;;;;;;16.90;82.30;;;;;;5184205;22;19907;-87
2023/10/11 05:55:41;;;;;;;;;;;16.90;82.30;;;;;;5188648;22;19911;-87
2023/10/11 05:58:04;;;;;;;;;;;17.00;82.30;;;;;;5193553;22;19978;-86
2023/10/11 06:00:25;;;;;;;;;;;16.90;82.00;;;;;;5214644;22;19899;-88
2023/10/11 06:02:47;;;;;;;;;;;16.90;82.10;;;;;;5198948;22;19918;-85
2023/10/11 06:04:48;;;;;;;;;;;17.00;82.00;;;;;;5189283;22;20315;-86
2023/10/11 06:06:57;;;;;;;;;;;16.90;82.20;;;;;;5188831;22;19914;-87
2023/10/11 06:08:58;;;;;;;;;;;16.90;82.00;;;;;;5190659;22;19914;-86
2023/10/11 06:10:59;;;;;;;;;;;16.90;82.10;;;;;;5190229;22;19974;-86
2023/10/11 06:13:02;;;;;;;;;;;16.90;81.90;;;;;;5162457;22;19914;-87
2023/10/11 06:15:16;;;;;;;;;;;17.00;82.00;;;;;;5189449;22;19946;-85
2023/10/11 06:17:21;;;;;;;;;;;16.90;81.90;;;;;;5163165;23;20418;-84
2023/10/11 06:19:27;;;;;;;;;;;16.90;82.00;;;;;;5162938;23;19903;-86
2023/10/11 06:21:30;;;;;;;;;;;17.00;81.90;;;;;;5162662;23;20071;-86
2023/10/11 06:23:32;;;;;;;;;;;16.90;81.90;;;;;;5162881;22;19935;-88
2023/10/11 06:25:51;;;;;;;;;;;17.00;81.90;;;;;;5136674;23;19908;-86
2023/10/11 06:29:58;;;;;;;;;;;16.90;81.90;;;;;;5162363;23;19911;-86
2023/10/11 06:32:01;;;;;;;;;;;17.10;81.90;;;;;;5189464;22;19926;-88
2023/10/11 06:34:15;;;;;;;;;;;17.00;81.90;;;;;;5162675;23;19904;-87
2023/10/11 06:36:18;;;;;;;;;;;17.00;81.90;;;;;;5163009;23;19983;-85
2023/10/11 06:38:21;;;;;;;;;;;17.00;81.90;;;;;;5137318;23;19998;-88
2023/10/11 06:41:36;;;;;;;;;;;17.00;82.00;;;;;;5188095;22;19907;-85
2023/10/11 06:42:55;;;;;;;;;;;17.00;81.90;;;;;;5156772;22;19907;-88
2023/10/11 06:45:01;;;;;;;;;;;17.00;82.00;;;;;;5189090;22;19967;-84
2023/10/11 06:47:03;;;;;;;;;;;17.00;81.90;;;;;;5189350;22;20005;-88
2023/10/11 06:49:04;;;;;;;;;;;17.00;81.90;;;;;;5190047;22;19911;-86
2023/10/11 06:51:05;;;;;;;;;;;17.00;82.00;;;;;;5162954;23;19930;-88
2023/10/11 06:53:09;;;;;;;;;;;17.10;81.90;;;;;;5189530;22;19911;-87
2023/10/11 06:55:14;;;;;;;;;;;17.10;81.90;;;;;;5188744;22;19914;-86
2023/10/11 06:57:19;;;;;;;;;;;16.90;81.80;;;;;;5189817;22;20423;-87
2023/10/11 06:59:20;;;;;;;;;;;17.10;81.80;;;;;;5163094;23;19904;-86
2023/10/11 07:01:20;;;;;;;;;;;17.10;81.80;;;;;;5161961;23;20355;-86
2023/10/11 07:03:26;;;;;;;;;;;17.10;81.70;;;;;;5189087;22;20334;-87
2023/10/11 07:05:28;;;;;;;;;;;17.10;81.60;;;;;;5136785;23;19915;-87
2023/10/11 07:07:32;;;;;;;;;;;17.10;81.50;;;;;;5163309;23;19908;-88
2023/10/11 07:09:39;;;;;;;;;;;17.10;81.50;;;;;;5189921;22;19942;-87
2023/10/11 07:11:50;;;;;;;;;;;17.20;81.50;;;;;;5161888;23;19908;-85
2023/10/11 07:14:00;;;;;;;;;;;17.10;81.40;;;;;;5189546;22;19903;-87
2023/10/11 07:16:08;;;;;;;;;;;17.10;81.30;;;;;;5161580;23;20516;-88
2023/10/11 07:18:10;;;;;;;;;;;17.20;81.30;;;;;;5189560;22;20350;-87
2023/10/11 07:20:47;;;;;;;;;;;17.10;81.20;;;;;;5162194;23;19908;-86
2023/10/11 07:22:39;;;;;;;;;;;17.10;81.10;;;;;;5188795;22;19903;-87
2023/10/11 07:24:40;;;;;;;;;;;17.20;81.10;;;;;;5187981;22;19994;-86
2023/10/11 07:28:50;;;;;;;;;;;17.10;80.90;;;;;;5162306;23;20465;-86
2023/10/11 07:30:50;;;;;;;;;;;17.20;80.90;;;;;;5162108;23;19952;-87
2023/10/11 07:32:51;;;;;;;;;;;17.20;80.90;;;;;;5187243;22;19994;-86
2023/10/11 07:34:54;;;;;;;;;;;17.10;80.80;;;;;;5189264;22;20473;-86
2023/10/11 07:36:56;;;;;;;;;;;17.20;80.90;;;;;;5187038;22;20243;-84
2023/10/11 07:39:00;;;;;;;;;;;17.10;80.80;;;;;;5162590;23;19917;-87
2023/10/11 07:41:04;;;;;;;;;;;17.20;80.80;;;;;;5189387;22;19962;-87
2023/10/11 07:43:04;;;;;;;;;;;17.20;80.60;;;;;;5189521;22;19903;-86
2023/10/11 07:45:12;;;;;;;;;;;17.20;80.50;;;;;;5162185;23;19930;-87
2023/10/11 07:47:16;;;;;;;;;;;17.10;80.40;;;;;;5161286;23;20069;-87
2023/10/11 07:49:23;;;;;;;;;;;17.20;80.50;;;;;;5161656;23;20282;-86
2023/10/11 07:51:25;;;;;;;;;;;17.10;80.40;;;;;;5161968;23;19915;-86
2023/10/11 07:53:25;;;;;;;;;;;17.20;80.40;;;;;;5161923;22;19903;-86
2023/10/11 07:55:26;;;;;;;;;;;17.20;80.50;;;;;;5161421;23;19911;-85
2023/10/11 07:57:27;;;;;;;;;;;17.20;80.40;;;;;;5189220;22;19930;-86
2023/10/11 07:59:28;;;;;;;;;;;17.30;80.50;;;;;;5189282;22;20327;-87
2023/10/11 08:01:30;;;;;;;;;;;17.20;80.50;;;;;;5188823;22;19904;-84
2023/10/11 08:03:37;;;;;;;;;;;17.30;80.50;;;;;;5189053;22;19903;-86
2023/10/11 08:05:45;;;;;;;;;;;17.30;80.40;;;;;;5162061;23;20430;-85
2023/10/11 08:07:46;;;;;;;;;;;17.30;80.40;;;;;;5189222;22;19954;-87
2023/10/11 08:09:47;;;;;;;;;;;17.30;80.20;;;;;;5160780;23;20367;-87
2023/10/11 08:11:56;;;;;;;;;;;17.30;80.30;;;;;;5162267;23;20362;-84
2023/10/11 08:14:01;;;;;;;;;;;17.30;80.10;;;;;;5189174;22;19907;-86
2023/10/11 08:16:05;;;;;;;;;;;17.30;80.10;;;;;;5187465;22;19908;-86
2023/10/11 08:18:06;;;;;;;;;;;17.30;80.00;;;;;;5189158;22;19911;-87
2023/10/11 08:20:15;;;;;;;;;;;17.30;79.90;;;;;;5161485;23;20043;-86
2023/10/11 08:22:16;;;;;;;;;;;17.30;80.00;;;;;;5188128;22;19956;-86
2023/10/11 08:24:17;;;;;;;;;;;17.40;80.00;;;;;;5188272;22;19986;-86
2023/10/11 08:26:21;;;;;;;;;;;17.40;80.10;;;;;;5161761;23;20366;-88
2023/10/11 08:28:28;;;;;;;;;;;17.40;80.10;;;;;;5161773;23;19918;-86
2023/10/11 08:30:50;;;;;;;;;;;17.50;80.10;;;;;;5166539;22;19911;-87
2023/10/11 08:33:12;;;;;;;;;;;17.50;80.10;;;;;;5200449;22;19900;-88
2023/10/11 08:35:31;;;;;;;;;;;17.40;79.80;;;;;;5188387;22;19912;-87
2023/10/11 08:37:53;;;;;;;;;;;17.40;79.70;;;;;;5194585;22;19931;-87
2023/10/11 08:40:34;;;;;;;;;;;17.50;79.80;;;;;;5188576;22;19907;-88
2023/10/11 08:42:59;;;;;;;;;;;17.50;79.60;;;;;;5187553;22;19911;-87
2023/10/11 08:45:33;;;;;;;;;;;17.60;79.50;;;;;;5188218;22;19907;-87
2023/10/11 08:47:54;;;;;;;;;;;17.50;79.60;;;;;;5188963;22;19903;-88
2023/10/11 08:50:18;;;;;;;;;;;17.60;79.50;;;;;;5188628;22;19990;-87
2023/10/11 08:52:38;;;;;;;;;;;17.60;79.50;;;;;;5187767;22;19960;-88
2023/10/11 08:55:00;;;;;;;;;;;17.60;79.20;;;;;;5189286;22;19904;-88
2023/10/11 08:57:31;;;;;;;;;;;17.60;79.20;;;;;;5166299;22;19904;-85
2023/10/11 08:59:32;;;;;;;;;;;17.60;79.20;;;;;;5162580;23;19931;-87
2023/10/11 09:01:36;;;;;;;;;;;17.70;79.20;;;;;;5187729;22;19919;-88
2023/10/11 09:03:40;;;;;;;;;;;17.70;79.10;;;;;;5161532;22;19975;-86
2023/10/11 09:05:44;;;;;;;;;;;17.70;79.00;;;;;;5187972;22;19937;-87
2023/10/11 09:07:45;;;;;;;;;;;17.70;78.90;;;;;;5187834;22;19907;-88
2023/10/11 09:09:50;;;;;;;;;;;17.70;78.30;;;;;;5188521;22;19914;-88
2023/10/11 09:11:57;;;;;;;;;;;17.70;78.60;;;;;;5135945;23;19908;-88
2023/10/11 09:14:17;;;;;;;;;;;17.70;78.60;;;;;;5136501;23;19904;-88
2023/10/11 09:16:36;;;;;;;;;;;17.70;78.40;;;;;;5188332;22;19903;-90
2023/10/11 09:18:36;;;;;;;;;;;17.70;78.30;;;;;;5187588;22;19917;-86
2023/10/11 09:20:40;;;;;;;;;;;17.70;78.00;;;;;;5135765;23;19908;-88
2023/10/11 09:22:47;;;;;;;;;;;17.70;78.00;;;;;;5188422;22;19915;-87
2023/10/11 09:25:02;;;;;;;;;;;17.70;77.90;;;;;;5188207;22;19976;-85
2023/10/11 09:29:23;;;;;;;;;;;17.70;77.80;;;;;;5160939;23;19966;-88
2023/10/11 09:31:24;;;;;;;;;;;17.70;77.80;;;;;;5161210;23;20324;-87
2023/10/11 09:33:34;;;;;;;;;;;17.80;78.00;;;;;;5187063;22;19919;-87
2023/10/11 09:35:35;;;;;;;;;;;17.80;78.00;;;;;;5160448;23;19908;-87
2023/10/11 09:37:35;;;;;;;;;;;17.80;78.10;;;;;;5188408;22;20054;-87
2023/10/11 09:39:37;;;;;;;;;;;17.80;78.00;;;;;;5161605;23;20348;-89
2023/10/11 09:41:40;;;;;;;;;;;17.90;78.30;;;;;;5188478;22;19907;-87
2023/10/11 09:43:44;;;;;;;;;;;17.80;78.10;;;;;;5188408;22;19982;-88
2023/10/11 09:45:53;;;;;;;;;;;17.80;77.90;;;;;;5136479;23;19942;-87
2023/10/11 09:47:54;;;;;;;;;;;17.80;77.90;;;;;;5188343;22;19976;-88
2023/10/11 09:49:59;;;;;;;;;;;17.90;78.00;;;;;;5188202;22;19961;-86
2023/10/11 09:52:07;;;;;;;;;;;17.90;77.80;;;;;;5161029;23;20329;-87
2023/10/11 09:54:14;;;;;;;;;;;17.90;77.90;;;;;;5162091;23;19907;-87
2023/10/11 09:56:25;;;;;;;;;;;17.90;77.90;;;;;;5188359;22;20606;-87
2023/10/11 09:58:35;;;;;;;;;;;17.90;77.80;;;;;;5161650;23;19922;-87
2023/10/11 10:00:40;;;;;;;;;;;17.90;77.50;;;;;;5161867;23;19934;-87
2023/10/11 10:02:46;;;;;;;;;;;17.90;78.30;;;;;;5160788;22;19930;-87
2023/10/11 10:04:49;;;;;;;;;;;17.90;77.60;;;;;;5136451;23;20517;-88
2023/10/11 10:07:10;;;;;;;;;;;18.00;77.70;;;;;;5185659;22;20372;-86
2023/10/11 10:09:23;;;;;;;;;;;18.00;77.60;;;;;;5159872;23;20216;-87
2023/10/11 10:11:24;;;;;;;;;;;18.00;77.60;;;;;;5160800;23;19908;-86
2023/10/11 10:13:25;;;;;;;;;;;18.00;77.40;;;;;;5188274;22;19953;-87
2023/10/11 10:15:32;;;;;;;;;;;18.00;77.20;;;;;;5160832;23;20228;-89
2023/10/11 10:17:33;;;;;;;;;;;18.00;77.30;;;;;;5210903;22;19899;-86
2023/10/11 10:19:39;;;;;;;;;;;18.00;78.00;;;;;;5188405;22;19944;-87
2023/10/11 10:22:07;;;;;;;;;;;18.00;77.50;;;;;;5188451;22;19895;-85
2023/10/11 10:24:28;;;;;;;;;;;18.00;77.30;;;;;;5157875;22;19903;-87
2023/10/11 10:26:30;;;;;;;;;;;18.00;77.40;;;;;;5189085;22;19910;-88
2023/10/11 10:28:45;;;;;;;;;;;18.00;77.40;;;;;;5188131;22;19978;-88
2023/10/11 10:31:04;;;;;;;;;;;18.00;77.30;;;;;;5188436;22;19964;-88
2023/10/11 10:33:18;;;;;;;;;;;18.00;77.40;;;;;;5161968;22;19907;-86
2023/10/11 10:35:18;;;;;;;;;;;18.00;77.50;;;;;;5162380;23;19904;-87
2023/10/11 10:37:37;;;;;;;;;;;18.00;77.40;;;;;;5137055;23;19939;-88
2023/10/11 10:40:15;;;;;;;;;;;18.00;77.30;;;;;;5187635;22;19904;-85
2023/10/11 10:42:28;;;;;;;;;;;18.10;77.40;;;;;;5161017;22;19962;-86
2023/10/11 10:44:29;;;;;;;;;;;18.00;77.30;;;;;;5161568;23;19982;-87
2023/10/11 10:46:33;;;;;;;;;;;18.00;77.00;;;;;;5188619;22;19910;-88
2023/10/11 10:48:55;;;;;;;;;;;18.00;77.10;;;;;;5189865;22;19935;-87
2023/10/11 10:51:05;;;;;;;;;;;18.00;77.00;;;;;;5190133;22;19990;-87
2023/10/11 10:53:36;;;;;;;;;;;17.90;77.30;;;;;;5166935;22;19911;-86
2023/10/11 10:55:58;;;;;;;;;;;17.90;77.50;;;;;;5167015;22;20138;-86
2023/10/11 10:58:19;;;;;;;;;;;17.90;77.80;;;;;;5189669;22;19983;-86
2023/10/11 11:00:43;;;;;;;;;;;17.90;78.00;;;;;;5189332;22;19915;-86
2023/10/11 11:03:15;;;;;;;;;;;17.90;78.80;;;;;;5188896;22;19907;-87
2023/10/11 11:05:18;;;;;;;;;;;17.90;78.20;;;;;;5137740;23;19912;-86
2023/10/11 11:07:38;;;;;;;;;;;17.80;78.20;;;;;;5191606;22;19907;-86
2023/10/11 11:10:01;;;;;;;;;;;17.90;78.30;;;;;;5192030;22;19907;-89
2023/10/11 11:12:28;;;;;;;;;;;17.80;78.30;;;;;;5189620;22;19982;-86
2023/10/11 11:14:55;;;;;;;;;;;17.80;78.20;;;;;;5169202;22;19956;-86
2023/10/11 11:17:19;;;;;;;;;;;17.80;78.20;;;;;;5192583;22;19903;-84
2023/10/11 11:19:41;;;;;;;;;;;17.90;78.40;;;;;;5207378;22;19958;-87
2023/10/11 11:22:12;;;;;;;;;;;17.80;78.40;;;;;;5213357;22;19895;-87
2023/10/11 11:24:36;;;;;;;;;;;17.80;78.50;;;;;;5193591;22;19990;-86
2023/10/11 11:26:56;;;;;;;;;;;17.80;78.70;;;;;;5169124;22;19907;-87
2023/10/11 11:29:09;;;;;;;;;;;17.70;78.90;;;;;;5161965;23;20017;-87
2023/10/11 11:31:13;;;;;;;;;;;17.80;78.90;;;;;;5189336;22;19910;-87
2023/10/11 11:33:36;;;;;;;;;;;17.80;78.90;;;;;;5188861;22;19977;-89
2023/10/11 11:35:44;;;;;;;;;;;17.80;79.00;;;;;;5162238;23;19986;-86
2023/10/11 11:38:01;;;;;;;;;;;17.80;79.10;;;;;;5162077;23;19914;-87
2023/10/11 11:40:24;;;;;;;;;;;17.80;79.20;;;;;;5189678;22;20151;-88
2023/10/11 11:42:33;;;;;;;;;;;17.80;79.20;;;;;;5187845;22;19903;-89
2023/10/11 11:44:34;;;;;;;;;;;17.80;79.30;;;;;;5161567;23;19915;-88
2023/10/11 11:46:35;;;;;;;;;;;17.90;79.30;;;;;;5189278;22;19907;-88
2023/10/11 11:48:44;;;;;;;;;;;17.90;79.20;;;;;;5189749;22;19941;-88
2023/10/11 11:50:45;;;;;;;;;;;17.90;79.10;;;;;;5186889;22;20028;-86
2023/10/11 11:52:52;;;;;;;;;;;17.90;79.00;;;;;;5183559;22;19911;-86
2023/10/11 11:54:54;;;;;;;;;;;17.90;78.70;;;;;;5184574;22;19979;-88
2023/10/11 11:56:56;;;;;;;;;;;17.90;78.60;;;;;;5161575;23;19904;-87
2023/10/11 11:59:00;;;;;;;;;;;17.90;78.40;;;;;;5188339;22;19951;-87
2023/10/11 12:03:23;;;;;;;;;;;17.90;78.40;;;;;;5158212;22;19911;-87
2023/10/11 12:05:27;;;;;;;;;;;17.90;78.30;;;;;;5159576;23;19922;-88
2023/10/11 12:07:28;;;;;;;;;;;17.90;78.20;;;;;;5159326;23;19910;-87
2023/10/11 12:09:32;;;;;;;;;;;17.90;78.30;;;;;;5184423;22;19911;-86
2023/10/11 12:11:33;;;;;;;;;;;17.80;78.20;;;;;;5154173;23;19914;-86
2023/10/11 12:13:33;;;;;;;;;;;17.90;78.20;;;;;;5184790;22;19907;-88
2023/10/11 12:15:35;;;;;;;;;;;17.80;78.10;;;;;;5186337;22;19910;-87
2023/10/11 12:17:43;;;;;;;;;;;17.90;78.00;;;;;;5160031;23;20557;-87
2023/10/11 12:20:12;;;;;;;;;;;17.80;78.00;;;;;;5163554;22;20391;-87
2023/10/11 12:22:32;;;;;;;;;;;17.80;78.00;;;;;;5186566;22;19903;-88
2023/10/11 12:24:58;;;;;;;;;;;17.90;78.00;;;;;;5186117;22;19907;-87
2023/10/11 12:27:22;;;;;;;;;;;17.80;78.00;;;;;;5185599;22;19914;-89
2023/10/11 12:29:48;;;;;;;;;;;17.90;77.90;;;;;;5186211;22;20007;-88
2023/10/11 12:31:51;;;;;;;;;;;17.80;77.80;;;;;;5161723;23;19923;-87
2023/10/11 12:33:51;;;;;;;;;;;17.80;77.90;;;;;;5188085;22;20290;-87
2023/10/11 12:35:52;;;;;;;;;;;17.70;77.80;;;;;;5189404;22;19954;-87
2023/10/11 12:37:53;;;;;;;;;;;17.80;77.90;;;;;;5159919;23;19904;-89
2023/10/11 12:39:53;;;;;;;;;;;17.70;77.90;;;;;;5187585;22;19915;-88
2023/10/11 12:41:55;;;;;;;;;;;17.70;77.90;;;;;;5184243;22;19907;-88
2023/10/11 12:43:55;;;;;;;;;;;17.70;77.90;;;;;;5184646;22;19953;-88
2023/10/11 12:46:00;;;;;;;;;;;17.70;78.10;;;;;;5159667;23;19904;-86
2023/10/11 12:48:06;;;;;;;;;;;17.80;78.20;;;;;;5184171;22;20399;-88
2023/10/11 12:50:08;;;;;;;;;;;17.70;78.20;;;;;;5184897;22;20590;-87
2023/10/11 12:52:17;;;;;;;;;;;17.80;78.30;;;;;;5186955;22;19907;-88
2023/10/11 12:54:22;;;;;;;;;;;17.70;78.10;;;;;;5159146;23;19907;-87
2023/10/11 12:56:23;;;;;;;;;;;17.70;78.00;;;;;;5159893;23;19907;-87
2023/10/11 12:58:27;;;;;;;;;;;17.70;78.10;;;;;;5185847;22;19908;-88
2023/10/11 13:00:37;;;;;;;;;;;17.70;78.10;;;;;;5157514;23;20414;-88
2023/10/11 13:02:47;;;;;;;;;;;17.70;78.10;;;;;;5157762;22;19907;-87
2023/10/11 13:04:49;;;;;;;;;;;17.70;78.00;;;;;;5134200;23;19962;-88
2023/10/11 13:06:52;;;;;;;;;;;17.70;78.00;;;;;;5158593;23;19995;-87
2023/10/11 13:08:52;;;;;;;;;;;17.70;78.80;;;;;;5185623;22;19911;-87